Time;durP1;ratioP1;P1;durP2;ratioP2;P2;SDS_P1;SDS_P2;PMS_P1;PMS_P2;Temp;Humidity;BMP_temperature;BMP_pressure;BME280_temperature;BME280_humidity;BME280_pressure;Samples;Min_cycle;Max_cycle;Signal;HPM_P1;HPM_P2
2021/06/26 00:00:06;;;;;;;10.65;7.18;;;27.10;69.60;;;;;;5054332;28;20032;-75
2021/06/26 00:02:32;;;;;;;12.93;7.30;;;27.10;69.60;;;;;;5069319;28;20036;-75
2021/06/26 00:04:57;;;;;;;14.32;7.20;;;27.00;69.60;;;;;;5069604;28;20029;-75
2021/06/26 00:07:23;;;;;;;12.73;8.02;;;27.00;69.70;;;;;;5054293;28;20402;-75
2021/06/26 00:09:49;;;;;;;9.63;7.93;;;27.00;70.00;;;;;;5054348;28;20036;-75
2021/06/26 00:12:14;;;;;;;12.15;8.55;;;27.00;70.30;;;;;;5053745;28;20459;-76
2021/06/26 00:14:40;;;;;;;9.88;7.88;;;27.00;70.30;;;;;;5054211;28;20478;-75
2021/06/26 00:17:06;;;;;;;12.45;7.55;;;26.90;70.40;;;;;;5054062;28;20107;-75
2021/06/26 00:19:32;;;;;;;11.60;7.97;;;26.90;70.60;;;;;;5053635;28;20040;-75
2021/06/26 00:21:57;;;;;;;15.15;7.80;;;26.90;70.80;;;;;;5053934;28;20409;-75
2021/06/26 00:24:23;;;;;;;11.98;7.93;;;26.90;70.90;;;;;;5053505;28;20032;-75
2021/06/26 00:26:50;;;;;;;15.02;8.05;;;26.80;71.00;;;;;;5053897;28;20462;-75
2021/06/26 00:29:16;;;;;;;17.52;7.72;;;26.80;71.20;;;;;;5053826;28;20064;-75
2021/06/26 00:31:42;;;;;;;13.13;8.02;;;26.80;71.30;;;;;;5053850;28;20035;-75
2021/06/26 00:34:08;;;;;;;10.32;8.02;;;26.80;71.50;;;;;;5053872;28;20463;-75
2021/06/26 00:36:33;;;;;;;12.68;7.65;;;26.80;71.60;;;;;;5053893;28;20033;-75
2021/06/26 00:38:59;;;;;;;9.73;7.95;;;26.80;71.80;;;;;;5053742;28;20021;-75
2021/06/26 00:41:25;;;;;;;12.90;7.75;;;26.80;71.90;;;;;;5053585;28;20055;-75
2021/06/26 00:43:50;;;;;;;10.60;8.23;;;26.70;72.00;;;;;;5053798;28;20036;-75
2021/06/26 00:46:16;;;;;;;13.48;9.30;;;26.70;72.20;;;;;;5053576;28;20032;-75
2021/06/26 00:48:42;;;;;;;12.65;8.90;;;26.70;72.50;;;;;;5053844;28;20032;-75
2021/06/26 00:51:08;;;;;;;10.65;7.95;;;26.70;72.80;;;;;;5053381;28;20029;-75
2021/06/26 00:53:33;;;;;;;14.85;9.23;;;26.70;73.00;;;;;;5053510;28;20052;-75
2021/06/26 00:56:01;;;;;;;12.75;8.77;;;26.70;73.10;;;;;;5053855;28;20028;-76
2021/06/26 00:58:28;;;;;;;16.67;8.85;;;26.70;73.50;;;;;;5053053;28;20131;-75
2021/06/26 01:00:55;;;;;;;12.38;8.60;;;26.60;73.60;;;;;;5053665;28;20033;-75
2021/06/26 01:03:21;;;;;;;12.48;8.77;;;26.60;73.80;;;;;;5052539;28;20068;-75
2021/06/26 01:05:48;;;;;;;10.63;7.82;;;26.60;74.00;;;;;;5053587;28;20029;-75
2021/06/26 01:08:14;;;;;;;11.55;8.30;;;26.60;74.30;;;;;;5053558;28;20060;-76
2021/06/26 01:10:40;;;;;;;14.98;9.43;;;26.60;74.50;;;;;;5053247;28;20029;-75
2021/06/26 01:13:06;;;;;;;11.13;9.68;;;26.60;74.70;;;;;;5052918;28;20056;-75
2021/06/26 01:15:32;;;;;;;11.38;8.75;;;26.60;74.90;;;;;;5053248;28;20048;-75
2021/06/26 01:22:15;;;;;;;14.75;9.13;;;26.50;75.10;;;;;;5070313;28;20035;-76
2021/06/26 01:24:41;;;;;;;15.98;9.40;;;26.50;75.10;;;;;;5052845;28;20037;-75
2021/06/26 01:27:07;;;;;;;12.40;10.20;;;26.40;75.10;;;;;;5072980;28;20020;-75
2021/06/26 01:29:33;;;;;;;14.98;9.45;;;26.40;75.20;;;;;;5077281;28;20025;-75
2021/06/26 01:31:59;;;;;;;15.10;9.75;;;26.40;75.30;;;;;;5077306;28;20029;-75
2021/06/26 01:34:25;;;;;;;10.25;8.45;;;26.40;75.40;;;;;;5077146;28;20036;-75
2021/06/26 01:36:51;;;;;;;11.95;9.13;;;26.40;75.40;;;;;;5060517;28;20066;-75
2021/06/26 01:39:17;;;;;;;19.27;9.65;;;26.30;75.50;;;;;;5057146;28;20371;-75
2021/06/26 01:41:43;;;;;;;14.75;9.27;;;26.30;75.50;;;;;;5057050;28;20025;-75
2021/06/26 01:44:08;;;;;;;12.18;8.93;;;26.30;75.60;;;;;;5056839;28;20029;-75
2021/06/26 01:46:38;;;;;;;18.98;9.20;;;26.30;75.50;;;;;;5056595;28;20035;-75
2021/06/26 01:49:11;;;;;;;19.75;9.75;;;26.20;75.00;;;;;;5059024;28;20024;-75
2021/06/26 01:51:38;;;;;;;13.70;8.63;;;26.20;74.50;;;;;;5056506;28;20053;-75
2021/06/26 01:54:05;;;;;;;16.45;9.20;;;26.10;74.20;;;;;;5074208;28;20035;-75
2021/06/26 01:56:31;;;;;;;15.73;9.32;;;26.00;73.90;;;;;;5076675;28;20044;-75
2021/06/26 01:58:57;;;;;;;13.02;9.13;;;26.00;73.60;;;;;;5077027;28;20029;-75
2021/06/26 02:01:23;;;;;;;14.35;9.27;;;25.90;73.40;;;;;;5076589;28;20074;-75
2021/06/26 02:03:48;;;;;;;12.30;8.20;;;25.90;73.50;;;;;;5076563;28;20033;-75
2021/06/26 02:06:14;;;;;;;11.00;8.65;;;25.90;73.50;;;;;;5058824;28;20383;-75
2021/06/26 02:08:40;;;;;;;11.40;9.38;;;25.80;73.40;;;;;;5076411;28;20473;-75
2021/06/26 02:11:05;;;;;;;12.77;8.73;;;25.80;73.50;;;;;;5058974;28;20021;-75
2021/06/26 02:13:31;;;;;;;15.88;9.30;;;25.80;73.50;;;;;;5056749;28;20039;-75
2021/06/26 02:15:57;;;;;;;10.93;8.57;;;25.70;73.40;;;;;;5056298;28;20021;-75
2021/06/26 02:18:23;;;;;;;15.00;8.80;;;25.70;73.40;;;;;;5056201;28;20028;-75
2021/06/26 02:20:48;;;;;;;14.05;8.65;;;25.70;73.30;;;;;;5056098;28;20457;-75
2021/06/26 02:23:14;;;;;;;9.75;8.05;;;25.80;73.30;;;;;;5071238;28;20029;-75
2021/06/26 02:25:40;;;;;;;13.27;8.57;;;25.80;73.30;;;;;;5075875;28;20052;-75
2021/06/26 02:28:05;;;;;;;14.07;8.35;;;25.80;73.30;;;;;;5076155;28;20085;-75
2021/06/26 02:30:31;;;;;;;13.15;8.57;;;25.80;73.30;;;;;;5074690;28;20520;-75
2021/06/26 02:32:57;;;;;;;12.15;9.02;;;25.90;73.40;;;;;;5075861;28;20039;-75
2021/06/26 02:35:23;;;;;;;11.63;8.48;;;25.90;73.50;;;;;;5075981;28;20028;-75
2021/06/26 02:37:49;;;;;;;12.73;8.50;;;26.00;73.40;;;;;;5075920;28;20031;-75
2021/06/26 02:40:15;;;;;;;11.40;9.30;;;26.00;73.30;;;;;;5064685;28;20114;-75
2021/06/26 02:42:41;;;;;;;10.25;8.45;;;26.10;73.40;;;;;;5055854;28;20040;-75
2021/06/26 02:45:08;;;;;;;12.15;8.15;;;26.10;73.40;;;;;;5055825;28;20120;-75
2021/06/26 02:47:33;;;;;;;11.55;8.35;;;26.20;73.30;;;;;;5055805;28;20037;-75
2021/06/26 02:49:59;;;;;;;17.23;8.80;;;26.20;73.20;;;;;;5055845;28;20029;-75
2021/06/26 02:52:25;;;;;;;10.85;8.30;;;26.30;73.20;;;;;;5055624;28;20041;-75
2021/06/26 02:54:51;;;;;;;11.10;8.73;;;26.30;73.20;;;;;;5054536;28;20113;-75
2021/06/26 02:57:17;;;;;;;10.85;7.75;;;26.30;73.00;;;;;;5055669;28;20025;-75
2021/06/26 02:59:44;;;;;;;11.07;8.57;;;26.40;72.90;;;;;;5055292;28;20112;-75
2021/06/26 03:02:10;;;;;;;11.23;8.60;;;26.50;72.80;;;;;;5055632;28;20394;-75
2021/06/26 03:04:36;;;;;;;13.20;7.72;;;26.50;72.40;;;;;;5055309;28;20033;-75
2021/06/26 03:07:02;;;;;;;10.32;7.70;;;26.60;72.10;;;;;;5055220;28;20028;-75
2021/06/26 03:09:28;;;;;;;12.95;7.95;;;26.60;71.70;;;;;;5055341;28;20032;-75
2021/06/26 03:11:54;;;;;;;9.80;7.82;;;26.60;71.40;;;;;;5055427;28;20087;-75
2021/06/26 03:14:20;;;;;;;9.93;7.93;;;26.70;71.80;;;;;;5055289;28;20379;-75
2021/06/26 03:16:46;;;;;;;13.70;7.80;;;26.70;70.90;;;;;;5055269;28;20053;-74
2021/06/26 03:19:12;;;;;;;11.48;7.50;;;26.70;70.70;;;;;;5054968;28;20099;-74
2021/06/26 03:21:37;;;;;;;11.30;7.20;;;26.80;70.40;;;;;;5054830;28;20071;-74
2021/06/26 03:24:03;;;;;;;12.15;7.57;;;26.80;70.10;;;;;;5055009;28;20430;-74
2021/06/26 03:26:33;;;;;;;12.77;7.30;;;26.90;69.90;;;;;;5070333;28;20029;-74
2021/06/26 03:28:58;;;;;;;13.48;7.40;;;26.90;69.50;;;;;;5084199;28;20028;-74
2021/06/26 03:31:24;;;;;;;10.95;7.18;;;27.00;69.30;;;;;;5083984;28;20031;-73
2021/06/26 03:33:50;;;;;;;10.80;7.68;;;27.00;69.00;;;;;;5082834;28;20028;-74
2021/06/26 03:36:16;;;;;;;11.25;7.13;;;27.10;68.90;;;;;;5083964;28;20111;-75
2021/06/26 03:38:43;;;;;;;12.50;7.60;;;27.10;68.90;;;;;;5083857;28;20025;-74
2021/06/26 03:41:09;;;;;;;15.65;8.02;;;27.20;69.00;;;;;;5082137;28;20470;-75
2021/06/26 03:43:34;;;;;;;10.13;7.85;;;27.30;68.90;;;;;;5084102;28;20032;-75
2021/06/26 03:46:00;;;;;;;14.65;7.82;;;27.30;68.70;;;;;;5083621;28;20074;-75
2021/06/26 03:48:26;;;;;;;14.90;7.85;;;27.40;68.40;;;;;;5082446;28;20043;-76
2021/06/26 03:50:52;;;;;;;11.23;7.95;;;27.40;68.10;;;;;;5084003;28;20020;-74
2021/06/26 03:53:18;;;;;;;10.05;7.88;;;27.40;68.10;;;;;;5082987;28;20380;-74
2021/06/26 03:55:51;;;;;;;10.50;7.53;;;27.40;68.10;;;;;;5082647;28;20048;-75
2021/06/26 03:58:23;;;;;;;12.55;8.10;;;27.40;67.90;;;;;;5080664;28;20082;-75
2021/06/26 04:00:49;;;;;;;10.27;8.02;;;27.40;67.80;;;;;;5081942;28;20020;-75
2021/06/26 04:03:16;;;;;;;11.18;8.40;;;27.50;67.80;;;;;;5083735;28;20089;-75
2021/06/26 04:05:45;;;;;;;15.27;8.50;;;27.50;67.80;;;;;;5083223;28;20039;-74
2021/06/26 04:08:11;;;;;;;11.88;8.82;;;27.50;67.80;;;;;;5082043;28;20025;-74
2021/06/26 04:10:38;;;;;;;12.70;8.45;;;27.60;67.70;;;;;;5094173;28;20020;-76
2021/06/26 04:13:04;;;;;;;14.20;8.52;;;27.60;67.50;;;;;;5094472;28;20028;-74
2021/06/26 04:15:30;;;;;;;12.10;8.40;;;27.60;67.40;;;;;;5094270;28;20359;-74
2021/06/26 04:17:56;;;;;;;15.35;8.60;;;27.60;67.10;;;;;;5094500;28;20053;-74
2021/06/26 04:20:22;;;;;;;15.20;8.55;;;27.70;67.00;;;;;;5094645;28;20020;-74
2021/06/26 04:22:47;;;;;;;14.93;8.50;;;27.70;66.90;;;;;;5094213;28;20037;-74
2021/06/26 04:25:14;;;;;;;13.88;8.88;;;27.70;66.90;;;;;;5094114;28;20047;-74
2021/06/26 04:27:40;;;;;;;17.75;8.75;;;27.70;66.90;;;;;;5094582;28;20024;-74
2021/06/26 04:30:06;;;;;;;10.68;8.73;;;27.80;67.00;;;;;;5094165;28;20024;-74
2021/06/26 04:32:34;;;;;;;15.77;8.98;;;27.80;67.00;;;;;;5093069;28;20035;-74
2021/06/26 04:35:00;;;;;;;14.38;9.15;;;27.90;66.80;;;;;;5094118;28;20389;-74
2021/06/26 04:37:26;;;;;;;15.40;8.70;;;27.90;66.70;;;;;;5093696;28;20105;-75
2021/06/26 04:39:51;;;;;;;12.88;8.90;;;28.00;66.70;;;;;;5093624;28;20102;-75
2021/06/26 04:42:17;;;;;;;11.38;9.15;;;28.00;66.60;;;;;;5093740;28;20115;-75
2021/06/26 04:44:43;;;;;;;12.20;9.45;;;28.00;66.50;;;;;;5089876;28;20076;-75
2021/06/26 04:47:09;;;;;;;11.15;9.25;;;28.10;66.50;;;;;;5073654;28;20035;-75
2021/06/26 04:49:35;;;;;;;13.15;9.35;;;28.10;66.30;;;;;;5073274;28;20032;-75
2021/06/26 04:52:02;;;;;;;15.82;9.90;;;28.20;66.30;;;;;;5073599;28;20052;-75
2021/06/26 04:54:28;;;;;;;14.05;9.63;;;28.20;66.00;;;;;;5074260;28;20090;-75
2021/06/26 04:56:54;;;;;;;14.02;9.27;;;28.30;66.00;;;;;;5082976;28;20454;-75
2021/06/26 04:59:20;;;;;;;16.58;9.45;;;28.30;65.80;;;;;;5081364;28;20068;-77
2021/06/26 05:01:46;;;;;;;12.68;9.23;;;28.30;65.80;;;;;;5083118;28;20095;-76
2021/06/26 05:04:11;;;;;;;13.13;9.63;;;28.40;65.80;;;;;;5082603;28;20115;-76
2021/06/26 05:06:37;;;;;;;14.05;9.43;;;28.40;65.80;;;;;;5087432;28;20108;-76
2021/06/26 05:09:03;;;;;;;14.93;9.70;;;28.50;65.90;;;;;;5087981;28;20032;-76
2021/06/26 05:11:29;;;;;;;15.48;10.38;;;28.50;65.60;;;;;;5074926;28;20029;-76
2021/06/26 05:13:55;;;;;;;15.35;9.65;;;28.60;65.40;;;;;;5091958;28;20036;-77
2021/06/26 05:16:20;;;;;;;10.68;9.48;;;28.60;65.20;;;;;;5093084;28;20020;-75
2021/06/26 05:18:46;;;;;;;13.02;9.55;;;28.60;65.00;;;;;;5093120;28;20466;-74
2021/06/26 05:21:12;;;;;;;15.63;10.02;;;28.60;65.00;;;;;;5093135;28;20020;-76
2021/06/26 05:23:37;;;;;;;18.08;10.75;;;28.70;65.10;;;;;;5092838;28;20113;-76
2021/06/26 05:26:03;;;;;;;13.75;9.30;;;28.70;65.00;;;;;;5093241;28;20052;-76
2021/06/26 05:28:29;;;;;;;17.77;9.82;;;28.80;65.00;;;;;;5092192;28;20031;-76
2021/06/26 05:30:55;;;;;;;11.95;9.70;;;28.80;65.10;;;;;;5093378;28;20087;-76
2021/06/26 05:33:21;;;;;;;15.52;9.73;;;28.90;65.00;;;;;;5093453;28;20417;-76
2021/06/26 05:35:49;;;;;;;16.88;9.10;;;28.90;64.70;;;;;;5085587;28;20056;-75
2021/06/26 05:38:15;;;;;;;11.13;9.70;;;29.00;64.60;;;;;;5072950;28;20029;-76
2021/06/26 05:40:41;;;;;;;14.20;9.30;;;29.10;64.60;;;;;;5072976;28;20032;-76
2021/06/26 05:43:06;;;;;;;14.52;9.90;;;29.10;64.20;;;;;;5072806;28;20069;-76
2021/06/26 05:45:32;;;;;;;15.32;9.60;;;29.10;64.20;;;;;;5072805;28;20119;-76
2021/06/26 05:47:58;;;;;;;16.15;9.48;;;29.20;64.20;;;;;;5073046;28;20425;-75
2021/06/26 05:50:24;;;;;;;13.95;10.55;;;29.20;64.10;;;;;;5072795;28;20046;-75
2021/06/26 05:52:52;;;;;;;11.98;9.32;;;29.20;64.10;;;;;;5072828;28;20487;-75
2021/06/26 05:55:18;;;;;;;16.20;9.43;;;29.20;64.50;;;;;;5072999;28;20028;-75
2021/06/26 05:57:45;;;;;;;14.20;9.40;;;29.30;63.80;;;;;;5073168;28;20024;-75
2021/06/26 06:00:13;;;;;;;12.20;9.27;;;29.30;63.70;;;;;;5072879;28;20063;-75
2021/06/26 06:02:39;;;;;;;16.13;10.05;;;29.30;63.40;;;;;;5073176;28;20099;-75
2021/06/26 06:05:09;;;;;;;14.93;10.38;;;29.40;63.30;;;;;;5073016;28;20047;-75
2021/06/26 06:07:37;;;;;;;13.82;9.07;;;29.40;63.70;;;;;;5072871;28;20173;-76
2021/06/26 06:10:05;;;;;;;11.85;9.98;;;29.60;63.00;;;;;;5072871;28;20025;-75
2021/06/26 06:12:33;;;;;;;14.30;9.55;;;29.70;63.00;;;;;;5072569;28;20390;-75
2021/06/26 06:14:59;;;;;;;15.23;9.55;;;29.80;62.80;;;;;;5075896;28;20109;-75
2021/06/26 06:17:25;;;;;;;11.52;8.88;;;29.90;62.50;;;;;;5076285;28;20029;-75
2021/06/26 06:19:51;;;;;;;12.93;8.80;;;30.00;62.40;;;;;;5076432;28;20031;-75
2021/06/26 06:22:16;;;;;;;13.75;9.20;;;30.10;62.10;;;;;;5083891;28;20024;-76
2021/06/26 06:24:42;;;;;;;10.48;8.23;;;30.20;61.90;;;;;;5085382;28;20474;-76
2021/06/26 06:27:08;;;;;;;14.98;9.05;;;30.30;61.70;;;;;;5085509;28;20032;-76
2021/06/26 06:29:34;;;;;;;15.60;8.52;;;30.30;61.50;;;;;;5084025;28;20024;-75
2021/06/26 06:31:59;;;;;;;16.38;8.43;;;30.30;61.20;;;;;;5075869;28;20031;-75
2021/06/26 06:34:25;;;;;;;11.20;8.15;;;30.40;61.20;;;;;;5078865;28;20042;-74
2021/06/26 06:36:51;;;;;;;11.73;9.15;;;30.40;61.40;;;;;;5096495;28;20032;-74
2021/06/26 06:39:17;;;;;;;12.40;9.68;;;30.50;62.20;;;;;;5096167;28;20510;-76
2021/06/26 06:41:42;;;;;;;11.30;8.20;;;30.60;61.60;;;;;;5096190;28;20032;-75
2021/06/26 06:44:08;;;;;;;14.25;9.00;;;30.70;61.30;;;;;;5095979;28;20028;-74
2021/06/26 06:46:34;;;;;;;10.82;8.65;;;30.70;61.10;;;;;;5076456;28;20081;-74
2021/06/26 06:48:59;;;;;;;16.38;8.75;;;30.80;61.00;;;;;;5075861;28;20029;-76
2021/06/26 06:51:25;;;;;;;14.20;8.52;;;30.90;61.00;;;;;;5075310;28;20073;-75
2021/06/26 06:53:51;;;;;;;13.10;7.93;;;31.00;60.90;;;;;;5075527;28;20035;-77
2021/06/26 06:56:16;;;;;;;10.32;7.72;;;31.10;60.70;;;;;;5075875;28;20032;-75
2021/06/26 06:58:42;;;;;;;11.38;8.20;;;31.20;60.50;;;;;;5075361;28;20025;-75
2021/06/26 07:01:08;;;;;;;12.00;7.97;;;31.30;60.30;;;;;;5077555;28;20482;-75
2021/06/26 07:03:34;;;;;;;12.80;7.53;;;31.30;59.80;;;;;;5086533;28;20036;-75
2021/06/26 07:05:59;;;;;;;10.82;7.43;;;31.30;59.90;;;;;;5075204;28;20035;-75
2021/06/26 07:08:25;;;;;;;11.25;8.20;;;31.40;59.60;;;;;;5075158;28;20047;-75
2021/06/26 07:10:51;;;;;;;16.17;7.90;;;31.40;59.50;;;;;;5075082;28;20043;-75
2021/06/26 07:13:16;;;;;;;12.85;8.25;;;31.40;59.50;;;;;;5075408;28;20025;-75
2021/06/26 07:15:44;;;;;;;12.10;7.80;;;31.40;59.50;;;;;;5075306;28;20021;-75
2021/06/26 07:18:11;;;;;;;11.10;8.75;;;31.40;59.60;;;;;;5075461;28;20028;-75
2021/06/26 07:20:38;;;;;;;10.38;7.75;;;31.50;59.60;;;;;;5074891;28;20090;-75
2021/06/26 07:23:04;;;;;;;14.32;7.90;;;31.60;59.60;;;;;;5075010;28;20029;-75
2021/06/26 07:25:30;;;;;;;12.65;7.78;;;31.70;59.50;;;;;;5074098;28;20020;-75
2021/06/26 07:27:55;;;;;;;11.50;7.90;;;31.70;59.30;;;;;;5073792;28;20469;-75
2021/06/26 07:30:21;;;;;;;10.80;7.80;;;31.90;59.90;;;;;;5074885;28;20024;-75
2021/06/26 07:32:47;;;;;;;13.75;8.85;;;31.90;59.20;;;;;;5074570;28;20102;-75
2021/06/26 07:35:13;;;;;;;11.27;7.65;;;32.00;59.20;;;;;;5074718;28;20032;-75
2021/06/26 07:37:39;;;;;;;12.27;7.82;;;32.10;59.10;;;;;;5074832;28;20025;-75
2021/06/26 07:40:06;;;;;;;14.80;7.78;;;32.10;59.00;;;;;;5074682;28;20505;-75
2021/06/26 07:42:31;;;;;;;12.10;7.82;;;32.20;58.80;;;;;;5073465;28;20025;-76
2021/06/26 07:44:57;;;;;;;12.55;7.40;;;32.20;58.70;;;;;;5074457;28;20036;-76
2021/06/26 07:47:23;;;;;;;17.92;8.43;;;32.40;58.70;;;;;;5082037;28;20055;-76
2021/06/26 07:49:48;;;;;;;14.60;8.32;;;32.40;58.60;;;;;;5084220;28;20070;-77
2021/06/26 07:52:14;;;;;;;18.35;8.10;;;32.40;58.50;;;;;;5085448;28;20044;-76
2021/06/26 07:54:40;;;;;;;13.68;7.75;;;32.50;58.40;;;;;;5095219;28;20035;-76
2021/06/26 07:57:06;;;;;;;17.00;8.57;;;32.60;58.30;;;;;;5094939;28;20020;-75
2021/06/26 07:59:32;;;;;;;12.85;7.15;;;32.60;58.40;;;;;;5094841;28;20359;-75
2021/06/26 08:01:57;;;;;;;16.13;7.90;;;32.70;58.30;;;;;;5094355;28;20024;-76
2021/06/26 08:04:23;;;;;;;9.93;6.97;;;32.80;58.30;;;;;;5093307;28;20032;-76
2021/06/26 08:06:49;;;;;;;11.48;6.90;;;32.90;58.20;;;;;;5093162;28;20071;-75
2021/06/26 08:09:14;;;;;;;14.57;8.07;;;33.00;57.80;;;;;;5094046;28;20043;-74
2021/06/26 08:11:40;;;;;;;14.32;7.75;;;33.00;57.60;;;;;;5094393;28;20069;-75
2021/06/26 08:14:06;;;;;;;13.50;7.38;;;33.10;57.40;;;;;;5094602;28;20090;-76
2021/06/26 08:16:32;;;;;;;9.20;7.28;;;33.10;57.30;;;;;;5094335;28;20406;-75
2021/06/26 08:18:57;;;;;;;14.43;7.47;;;33.20;57.20;;;;;;5093997;28;20052;-75
2021/06/26 08:21:23;;;;;;;8.65;6.65;;;33.30;57.10;;;;;;5094603;28;20020;-75
2021/06/26 08:23:50;;;;;;;12.85;6.82;;;33.40;56.90;;;;;;5094099;28;20036;-75
2021/06/26 08:26:16;;;;;;;9.25;6.55;;;33.50;56.80;;;;;;5094565;28;20385;-75
2021/06/26 08:28:41;;;;;;;11.77;7.22;;;33.50;56.70;;;;;;5094078;28;20077;-75
2021/06/26 08:31:07;;;;;;;8.63;6.60;;;33.70;56.60;;;;;;5094391;28;20450;-75
2021/06/26 08:33:34;;;;;;;10.25;7.25;;;33.70;56.50;;;;;;5094226;28;20367;-77
2021/06/26 08:35:59;;;;;;;12.98;6.32;;;33.80;56.50;;;;;;5092742;28;20492;-77
2021/06/26 08:38:25;;;;;;;12.57;6.88;;;33.90;56.50;;;;;;5093628;28;20052;-75
2021/06/26 08:40:54;;;;;;;15.35;6.50;;;34.10;56.40;;;;;;5093689;28;20432;-76
2021/06/26 08:43:20;;;;;;;15.20;6.88;;;34.20;56.20;;;;;;5094474;28;20056;-74
2021/06/26 08:45:47;;;;;;;11.25;6.38;;;34.40;56.10;;;;;;5080481;28;20089;-77
2021/06/26 08:48:13;;;;;;;9.95;6.40;;;34.60;55.50;;;;;;5073384;28;20039;-75
2021/06/26 08:50:39;;;;;;;14.57;7.05;;;34.80;55.30;;;;;;5073390;28;20462;-77
2021/06/26 08:53:05;;;;;;;8.07;6.13;;;34.90;55.00;;;;;;5087661;28;20045;-74
2021/06/26 08:55:31;;;;;;;13.48;6.55;;;35.10;54.60;;;;;;5053932;28;20128;-75
2021/06/26 08:57:57;;;;;;;9.57;6.22;;;35.40;54.30;;;;;;5059987;28;20025;-75
2021/06/26 09:00:26;;;;;;;13.00;6.18;;;35.60;54.20;;;;;;5053727;28;20043;-75
2021/06/26 09:03:04;;;;;;;10.10;5.80;;;35.80;53.90;;;;;;5053473;28;20029;-75
2021/06/26 09:05:30;;;;;;;11.02;5.82;;;35.90;53.20;;;;;;5053354;28;20571;-75
2021/06/26 09:08:08;;;;;;;11.60;5.53;;;36.20;53.00;;;;;;5053548;28;20100;-75
2021/06/26 09:10:35;;;;;;;7.68;5.50;;;36.40;52.60;;;;;;5053476;28;20387;-75
2021/06/26 09:13:18;;;;;;;12.02;5.32;;;36.50;52.30;;;;;;5053309;28;20107;-75
2021/06/26 09:15:45;;;;;;;9.07;5.55;;;36.70;52.30;;;;;;5053412;28;20025;-75
2021/06/26 09:18:13;;;;;;;11.73;5.65;;;36.90;52.00;;;;;;5053454;28;20033;-75
2021/06/26 09:20:41;;;;;;;11.50;5.63;;;37.10;51.70;;;;;;5053405;28;20074;-75
2021/06/26 09:23:33;;;;;;;9.23;5.78;;;37.20;51.50;;;;;;5053032;28;20399;-76
2021/06/26 09:26:11;;;;;;;8.30;5.50;;;37.40;51.40;;;;;;5053020;28;20021;-75
2021/06/26 09:28:37;;;;;;;10.63;5.45;;;37.70;51.00;;;;;;5051709;28;20039;-76
2021/06/26 09:31:04;;;;;;;8.40;5.03;;;37.90;50.80;;;;;;5053147;28;20059;-75
2021/06/26 09:33:30;;;;;;;11.20;5.35;;;38.10;50.40;;;;;;5053028;28;20065;-75
2021/06/26 09:36:10;;;;;;;8.18;5.47;;;38.30;50.00;;;;;;5053101;28;20029;-76
2021/06/26 09:38:53;;;;;;;13.10;5.50;;;38.50;49.70;;;;;;5053515;28;20025;-76
2021/06/26 09:41:19;;;;;;;9.90;5.07;;;38.70;49.20;;;;;;5053515;28;20017;-76
2021/06/26 09:43:45;;;;;;;8.98;4.72;;;39.00;48.90;;;;;;5052946;28;20364;-77
2021/06/26 09:46:13;;;;;;;9.13;5.22;;;39.10;48.60;;;;;;5052720;28;20463;-76
2021/06/26 09:48:49;;;;;;;15.65;5.63;;;39.30;48.40;;;;;;5054196;28;20025;-77
2021/06/26 09:51:22;;;;;;;7.78;5.55;;;39.50;48.10;;;;;;5057425;28;20051;-76
2021/06/26 09:53:56;;;;;;;12.40;6.03;;;39.70;47.80;;;;;;5056947;28;20040;-77
2021/06/26 09:56:23;;;;;;;10.43;5.43;;;39.90;47.70;;;;;;5056925;28;20032;-75
2021/06/26 09:58:53;;;;;;;10.57;5.40;;;40.20;47.60;;;;;;5056539;28;20114;-76
2021/06/26 10:01:20;;;;;;;7.18;4.95;;;40.40;47.20;;;;;;5057087;28;20068;-76
2021/06/26 10:03:48;;;;;;;6.93;5.13;;;40.60;46.90;;;;;;5057107;28;20467;-77
2021/06/26 10:06:20;;;;;;;11.95;5.60;;;40.90;46.70;;;;;;5057315;28;20033;-76
2021/06/26 10:08:46;;;;;;;7.43;5.23;;;41.10;46.50;;;;;;5056770;28;20071;-77
2021/06/26 10:11:13;;;;;;;13.00;5.82;;;41.30;46.30;;;;;;5056733;28;20025;-75
2021/06/26 10:13:41;;;;;;;7.88;4.93;;;41.60;46.10;;;;;;5056651;28;20025;-76
2021/06/26 10:16:07;;;;;;;8.52;5.35;;;41.90;45.60;;;;;;5096690;28;20036;-76
2021/06/26 10:18:35;;;;;;;11.10;5.13;;;42.00;45.30;;;;;;5094795;28;20404;-76
2021/06/26 10:21:04;;;;;;;6.53;5.07;;;42.20;45.00;;;;;;5095042;28;20032;-75
2021/06/26 10:23:35;;;;;;;11.82;5.90;;;42.40;44.60;;;;;;5092819;28;20543;-77
2021/06/26 10:26:01;;;;;;;9.20;5.30;;;42.60;44.60;;;;;;5094912;28;20478;-76
2021/06/26 10:28:27;;;;;;;9.35;5.18;;;42.80;44.30;;;;;;5093672;28;20035;-77
2021/06/26 10:31:10;;;;;;;6.03;4.80;;;42.90;44.00;;;;;;5096206;28;20220;-77
2021/06/26 10:33:36;;;;;;;9.50;4.60;;;43.10;43.90;;;;;;5095044;28;20063;-78
2021/06/26 10:36:02;;;;;;;10.80;4.95;;;43.20;43.80;;;;;;5095728;28;20421;-76
2021/06/26 10:38:43;;;;;;;11.07;5.25;;;43.50;43.90;;;;;;5096393;28;20032;-76
2021/06/26 10:41:21;;;;;;;9.50;5.28;;;43.70;43.40;;;;;;5053803;28;20052;-76
2021/06/26 10:43:58;;;;;;;10.73;4.75;;;44.10;43.20;;;;;;5054262;28;20028;-75
2021/06/26 10:46:24;;;;;;;10.93;5.00;;;44.30;42.70;;;;;;5053335;28;20386;-75
2021/06/26 10:49:04;;;;;;;9.13;5.20;;;44.60;42.40;;;;;;5055640;28;20057;-74
2021/06/26 10:51:38;;;;;;;47.83;8.68;;;44.80;41.90;;;;;;5052790;28;20060;-76
2021/06/26 10:54:15;;;;;;;13.85;5.60;;;44.70;41.80;;;;;;5055703;28;20375;-76
2021/06/26 10:56:43;;;;;;;14.05;6.05;;;44.40;42.00;;;;;;5054847;28;20032;-76
2021/06/26 10:59:14;;;;;;;14.52;6.22;;;43.90;42.50;;;;;;5056146;28;20108;-76
2021/06/26 11:01:56;;;;;;;9.25;5.78;;;43.70;42.70;;;;;;5050861;28;20448;-77
2021/06/26 11:04:22;;;;;;;19.88;6.47;;;43.80;42.60;;;;;;5054813;28;20074;-76
2021/06/26 11:07:15;;;;;;;12.35;5.78;;;43.90;42.80;;;;;;5055712;28;20175;-77
2021/06/26 11:09:43;;;;;;;20.27;6.15;;;43.90;42.40;;;;;;5034192;28;20403;-75
2021/06/26 11:12:12;;;;;;;13.05;5.72;;;43.70;42.40;;;;;;5036905;28;20029;-75
2021/06/26 11:14:48;;;;;;;13.55;5.72;;;43.40;42.70;;;;;;5029172;28;20060;-78
2021/06/26 11:17:14;;;;;;;9.88;5.32;;;43.10;43.00;;;;;;5035039;28;20028;-76
2021/06/26 11:19:39;;;;;;;9.57;5.60;;;43.30;42.80;;;;;;5056555;28;20116;-76
2021/06/26 11:22:05;;;;;;;12.18;6.18;;;43.70;42.50;;;;;;5054544;28;20254;-76
2021/06/26 11:24:37;;;;;;;19.13;8.65;;;44.20;41.90;;;;;;5056739;28;20061;-76
2021/06/26 11:27:04;;;;;;;14.13;6.20;;;44.70;41.10;;;;;;5058133;28;20028;-76
2021/06/26 11:29:35;;;;;;;9.82;6.22;;;45.10;40.90;;;;;;5062737;28;20044;-76
2021/06/26 11:32:17;;;;;;;11.43;6.43;;;45.50;40.60;;;;;;5057485;28;20375;-76
2021/06/26 11:34:44;;;;;;;16.48;7.53;;;45.80;40.30;;;;;;5066319;28;20043;-76
2021/06/26 11:37:12;;;;;;;11.40;6.05;;;46.00;39.80;;;;;;5059315;28;20059;-78
2021/06/26 11:39:37;;;;;;;9.10;4.95;;;46.10;39.60;;;;;;5052539;28;20068;-76
2021/06/26 11:42:20;;;;;;;15.52;6.95;;;46.20;39.30;;;;;;5065394;28;20032;-76
2021/06/26 11:44:47;;;;;;;8.32;5.32;;;46.30;39.30;;;;;;5066775;28;20063;-76
2021/06/26 11:47:13;;;;;;;9.35;4.60;;;46.50;39.40;;;;;;5066059;28;20379;-78
2021/06/26 11:49:41;;;;;;;11.48;5.30;;;46.70;39.20;;;;;;5062623;28;20021;-76
2021/06/26 11:52:11;;;;;;;12.05;5.00;;;47.00;39.00;;;;;;5061265;28;20044;-76
2021/06/26 11:54:37;;;;;;;8.13;4.88;;;47.30;38.60;;;;;;5053987;28;20467;-77
2021/06/26 11:57:06;;;;;;;10.68;5.72;;;47.40;38.50;;;;;;5055221;28;20383;-77
2021/06/26 11:59:48;;;;;;;9.82;5.00;;;47.50;38.40;;;;;;5054892;28;20032;-77
2021/06/26 12:02:16;;;;;;;13.02;5.22;;;47.70;37.90;;;;;;5054857;28;20037;-77
2021/06/26 12:04:42;;;;;;;14.13;4.82;;;47.80;37.70;;;;;;5056310;28;20040;-77
2021/06/26 12:07:09;;;;;;;13.52;4.97;;;47.90;37.50;;;;;;5053704;28;20119;-77
2021/06/26 12:09:38;;;;;;;11.57;5.07;;;48.10;37.30;;;;;;5055377;28;20467;-77
2021/06/26 12:12:04;;;;;;;13.68;4.78;;;48.20;37.10;;;;;;5053895;28;20025;-77
2021/06/26 12:14:32;;;;;;;11.25;4.55;;;48.20;36.80;;;;;;5039765;28;20380;-76
2021/06/26 12:17:03;;;;;;;16.73;4.82;;;48.20;36.60;;;;;;5039434;28;20033;-77
2021/06/26 12:19:31;;;;;;;8.40;4.32;;;48.30;36.30;;;;;;5051195;28;20360;-75
2021/06/26 12:21:57;;;;;;;9.02;4.50;;;48.50;36.30;;;;;;5052458;28;20108;-78
2021/06/26 12:30:16;;;;;;;10.48;3.83;;;49.00;34.70;;;;;;5033269;28;20155;-76
2021/06/26 12:32:43;;;;;;;8.73;4.60;;;49.20;34.20;;;;;;5038192;28;20246;-75
2021/06/26 12:35:16;;;;;;;10.13;3.78;;;49.30;33.50;;;;;;5044724;28;20026;-75
2021/06/26 12:37:46;;;;;;;7.75;4.03;;;49.40;33.30;;;;;;5043438;28;20131;-76
2021/06/26 12:40:16;;;;;;;9.80;4.65;;;49.60;33.10;;;;;;5052728;28;20467;-76
2021/06/26 12:42:56;;;;;;;4.57;3.65;;;49.60;33.00;;;;;;5052264;28;20368;-76
2021/06/26 12:45:31;;;;;;;9.85;4.18;;;49.80;32.70;;;;;;5049669;28;20036;-75
2021/06/26 12:48:11;;;;;;;10.10;3.97;;;49.90;32.90;;;;;;5052369;28;20028;-75